createdAt,value
2017-09-22T00:00:06.546Z,0
2017-09-22T00:01:06.510Z,0
2017-09-22T00:02:01.602Z,0
2017-09-22T00:02:55.597Z,0
2017-09-22T00:03:56.146Z,0
2017-09-22T00:04:50.708Z,0
2017-09-22T00:05:56.705Z,0
2017-09-22T00:06:51.762Z,0
2017-09-22T00:07:45.978Z,0
2017-09-22T00:08:45.799Z,0
2017-09-22T00:09:45.867Z,0
2017-09-22T00:10:40.894Z,0
2017-09-22T00:11:34.896Z,0
2017-09-22T00:12:35.446Z,0
2017-09-22T00:13:30.013Z,0
2017-09-22T00:14:24.976Z,0
2017-09-22T00:15:26.008Z,0
2017-09-22T00:16:26.028Z,0
2017-09-22T00:17:26.074Z,0
2017-09-22T00:18:21.651Z,0
2017-09-22T00:19:15.185Z,0
2017-09-22T00:20:15.151Z,0
2017-09-22T00:21:10.223Z,0
2017-09-22T00:22:10.679Z,0
2017-09-22T00:23:04.237Z,0
2017-09-22T00:24:04.303Z,0
2017-09-22T00:24:59.346Z,0
2017-09-22T00:25:54.365Z,0
2017-09-22T00:26:55.358Z,0
2017-09-22T00:27:55.872Z,0
2017-09-22T00:28:50.417Z,0
2017-09-22T00:29:50.451Z,0
2017-09-22T00:30:44.507Z,0
2017-09-22T00:31:44.469Z,0
2017-09-22T00:32:39.496Z,0
2017-09-22T00:33:34.534Z,0
2017-09-22T00:34:34.583Z,0
2017-09-22T00:35:29.629Z,0
2017-09-22T00:36:24.710Z,0
2017-09-22T00:37:25.726Z,0
2017-09-22T00:38:25.724Z,0
2017-09-22T00:39:20.762Z,0
2017-09-22T00:40:20.770Z,0
2017-09-22T00:41:14.782Z,0
2017-09-22T00:42:15.367Z,0
2017-09-22T00:43:09.898Z,0
2017-09-22T00:44:09.887Z,0
2017-09-22T00:45:09.900Z,0
2017-09-22T00:46:09.959Z,0
2017-09-22T00:47:03.978Z,0
2017-09-22T00:48:04.072Z,0
2017-09-22T00:48:59.044Z,0
2017-09-22T00:49:54.093Z,0
2017-09-22T00:50:54.083Z,0
2017-09-22T00:51:49.094Z,0
2017-09-22T00:52:44.158Z,0
2017-09-22T00:53:44.205Z,0
2017-09-22T00:54:39.220Z,0
2017-09-22T00:55:34.248Z,0
2017-09-22T00:56:40.256Z,0
2017-09-22T00:57:34.678Z,0
2017-09-22T00:58:35.339Z,0
2017-09-22T00:59:35.363Z,0
2017-09-22T01:00:35.370Z,0
2017-09-22T01:01:30.394Z,0
2017-09-22T01:02:24.852Z,0
2017-09-22T01:03:24.474Z,0
2017-09-22T01:04:19.533Z,0
2017-09-22T01:05:19.574Z,0
2017-09-22T01:06:13.578Z,0
2017-09-22T01:07:13.916Z,0
2017-09-22T01:08:08.650Z,0
2017-09-22T01:09:08.720Z,0
2017-09-22T01:10:08.679Z,0
2017-09-22T01:11:14.742Z,0
2017-09-22T01:12:10.083Z,0
2017-09-22T01:13:03.796Z,0
2017-09-22T01:14:03.837Z,0
2017-09-22T01:15:03.878Z,0
2017-09-22T01:15:58.866Z,0
2017-09-22T01:16:52.992Z,0
2017-09-22T01:17:53.060Z,0
2017-09-22T01:18:47.983Z,0
2017-09-22T01:19:42.998Z,0
2017-09-22T01:20:44.024Z,0
2017-09-22T01:21:44.102Z,0
2017-09-22T01:22:44.680Z,0
2017-09-22T01:23:44.160Z,0
2017-09-22T01:24:45.166Z,0
2017-09-22T01:25:46.205Z,0
2017-09-22T01:26:40.274Z,0
2017-09-22T01:27:40.272Z,0
2017-09-22T01:28:35.292Z,0
2017-09-22T01:29:30.621Z,0
2017-09-22T01:30:30.357Z,0
2017-09-22T01:31:25.834Z,0
2017-09-22T01:32:20.393Z,0
2017-09-22T01:33:20.773Z,0
2017-09-22T01:34:15.461Z,0
2017-09-22T01:35:10.485Z,0
2017-09-22T01:36:16.548Z,0
2017-09-22T01:37:17.037Z,0
2017-09-22T01:38:16.632Z,0
2017-09-22T01:39:10.604Z,0
2017-09-22T01:40:10.680Z,0
2017-09-22T01:41:10.678Z,0
2017-09-22T01:42:11.241Z,0
2017-09-22T01:43:10.758Z,0
2017-09-22T01:44:05.785Z,0
2017-09-22T01:45:05.890Z,0
2017-09-22T01:46:05.843Z,0
2017-09-22T01:46:59.866Z,0
2017-09-22T01:48:00.892Z,0
2017-09-22T01:48:56.001Z,0
2017-09-22T01:49:49.970Z,0
2017-09-22T01:50:49.972Z,0
2017-09-22T01:51:45.014Z,0
2017-09-22T01:52:45.019Z,0
2017-09-22T01:53:39.090Z,0
2017-09-22T01:54:40.084Z,0
2017-09-22T01:55:41.138Z,0
2017-09-22T01:56:36.178Z,0
2017-09-22T01:57:30.258Z,0
2017-09-22T01:58:31.246Z,0
2017-09-22T01:59:32.268Z,0
2017-09-22T02:00:32.717Z,0
2017-09-22T02:01:33.335Z,0
2017-09-22T02:02:27.347Z,0
2017-09-22T02:03:27.386Z,0
2017-09-22T02:04:22.388Z,0
2017-09-22T02:05:17.427Z,0
2017-09-22T02:06:17.997Z,0
2017-09-22T02:07:12.559Z,0
2017-09-22T02:08:07.503Z,0
2017-09-22T02:09:08.575Z,0
2017-09-22T02:10:09.050Z,0
2017-09-22T02:11:03.603Z,0
2017-09-22T02:12:09.837Z,0
2017-09-22T02:13:09.669Z,0
2017-09-22T02:14:11.079Z,0
2017-09-22T02:15:04.722Z,0
2017-09-22T02:16:04.774Z,0
2017-09-22T02:16:59.784Z,0
2017-09-22T02:17:55.072Z,0
2017-09-22T02:19:00.853Z,0
2017-09-22T02:19:55.088Z,0
2017-09-22T02:20:54.900Z,0
2017-09-22T02:21:49.905Z,0
2017-09-22T02:22:50.399Z,0
2017-09-22T02:23:43.993Z,0
2017-09-22T02:24:43.996Z,0
2017-09-22T02:25:39.083Z,0
2017-09-22T02:26:34.087Z,0
2017-09-22T02:27:34.098Z,0
2017-09-22T02:28:29.115Z,0
2017-09-22T02:29:24.203Z,0
2017-09-22T02:30:24.219Z,0
2017-09-22T02:31:19.278Z,0
2017-09-22T02:32:14.277Z,0
2017-09-22T02:33:15.296Z,0
2017-09-22T02:34:15.409Z,0
2017-09-22T02:35:15.365Z,0
2017-09-22T02:36:10.393Z,0
2017-09-22T02:37:04.411Z,0
2017-09-22T02:38:04.474Z,0
2017-09-22T02:38:59.485Z,0
2017-09-22T02:39:59.489Z,0
2017-09-22T02:40:53.536Z,0
2017-09-22T02:41:53.574Z,0
2017-09-22T02:42:48.910Z,0
2017-09-22T02:43:43.615Z,0
2017-09-22T02:44:43.678Z,0
2017-09-22T02:45:38.685Z,0
2017-09-22T02:46:33.710Z,0
2017-09-22T02:47:35.061Z,0
2017-09-22T02:48:34.903Z,0
2017-09-22T02:49:34.836Z,0
2017-09-22T02:50:29.868Z,0
2017-09-22T02:51:23.889Z,0
2017-09-22T02:52:24.418Z,0
2017-09-22T02:53:18.970Z,0
2017-09-22T02:54:19.144Z,0
2017-09-22T02:55:13.004Z,0
2017-09-22T02:56:13.051Z,0
2017-09-22T02:57:08.067Z,0
2017-09-22T02:58:03.080Z,0
2017-09-22T02:59:03.104Z,0
2017-09-22T02:59:58.172Z,0
2017-09-22T03:00:58.190Z,0
2017-09-22T03:01:58.191Z,0
2017-09-22T03:03:04.249Z,0
2017-09-22T03:03:59.277Z,0
2017-09-22T03:05:00.351Z,0
2017-09-22T03:06:01.291Z,0
2017-09-22T03:07:01.357Z,0
2017-09-22T03:08:01.377Z,0
2017-09-22T03:08:56.387Z,0
2017-09-22T03:09:50.456Z,0
2017-09-22T03:10:50.487Z,0
2017-09-22T03:11:45.840Z,0
2017-09-22T03:12:40.548Z,0
2017-09-22T03:13:40.569Z,0
2017-09-22T03:14:35.592Z,0
2017-09-22T03:15:30.615Z,0
2017-09-22T03:16:30.684Z,0
2017-09-22T03:17:25.681Z,0
2017-09-22T03:18:20.702Z,0
2017-09-22T03:19:26.707Z,0
2017-09-22T03:20:20.770Z,0
2017-09-22T03:21:20.799Z,0
2017-09-22T03:22:16.408Z,0
2017-09-22T03:23:15.865Z,0
2017-09-22T03:24:09.890Z,0
2017-09-22T03:25:09.899Z,0
2017-09-22T03:26:04.973Z,0
2017-09-22T03:26:59.982Z,0
2017-09-22T03:27:59.978Z,0
2017-09-22T03:28:55.068Z,0
2017-09-22T03:29:50.121Z,0
2017-09-22T03:30:50.111Z,0
2017-09-22T03:31:45.115Z,0
2017-09-22T03:32:40.173Z,0
2017-09-22T03:33:41.195Z,0
2017-09-22T03:34:41.260Z,0
2017-09-22T03:35:41.255Z,0
2017-09-22T03:36:36.292Z,0
2017-09-22T03:37:30.299Z,0
2017-09-22T03:38:30.366Z,0
2017-09-22T03:39:25.588Z,0
2017-09-22T03:40:25.409Z,0
2017-09-22T03:41:19.449Z,0
2017-09-22T03:42:19.456Z,0
2017-09-22T03:43:14.846Z,0
2017-09-22T03:44:09.547Z,0
2017-09-22T03:45:09.573Z,0
2017-09-22T03:46:04.588Z,0
2017-09-22T03:46:59.610Z,0
2017-09-22T03:48:00.844Z,0
2017-09-22T03:49:00.689Z,0
2017-09-22T03:50:00.689Z,0
2017-09-22T03:50:55.778Z,0
2017-09-22T03:51:49.796Z,0
2017-09-22T03:52:49.784Z,0
2017-09-22T03:53:44.858Z,0
2017-09-22T03:54:44.870Z,0
2017-09-22T03:55:38.887Z,0
2017-09-22T03:56:39.170Z,0
2017-09-22T03:57:34.029Z,0
2017-09-22T03:58:28.991Z,0
2017-09-22T03:59:29.004Z,0
2017-09-22T04:00:24.013Z,0
2017-09-22T04:01:24.161Z,0
2017-09-22T04:02:24.140Z,0
2017-09-22T04:03:24.152Z,0
2017-09-22T04:04:18.170Z,0
2017-09-22T04:05:18.178Z,0
2017-09-22T04:06:13.216Z,0
2017-09-22T04:07:08.275Z,0
2017-09-22T04:08:09.287Z,0
2017-09-22T04:09:09.299Z,0
2017-09-22T04:10:09.355Z,0
2017-09-22T04:11:04.372Z,0
2017-09-22T04:11:58.394Z,0
2017-09-22T04:12:58.998Z,0
2017-09-22T04:13:53.548Z,0
2017-09-22T04:14:53.488Z,0
2017-09-22T04:15:47.592Z,0
2017-09-22T04:16:47.534Z,0
2017-09-22T04:17:42.956Z,0
2017-09-22T04:18:37.607Z,0
2017-09-22T04:19:37.674Z,0
2017-09-22T04:20:32.675Z,0
2017-09-22T04:21:27.697Z,0
2017-09-22T04:22:28.749Z,0
2017-09-22T04:23:28.779Z,0
2017-09-22T04:24:28.784Z,0
2017-09-22T04:25:23.857Z,0
2017-09-22T04:26:17.875Z,0
2017-09-22T04:27:17.896Z,0
2017-09-22T04:28:12.889Z,0
2017-09-22T04:29:12.930Z,0
2017-09-22T04:30:07.002Z,0
2017-09-22T04:31:07.068Z,0
2017-09-22T04:32:02.002Z,0
2017-09-22T04:32:57.334Z,0
2017-09-22T04:33:57.086Z,0
2017-09-22T04:34:52.165Z,0
2017-09-22T04:35:47.182Z,0
2017-09-22T04:36:53.188Z,0
2017-09-22T04:37:47.199Z,0
2017-09-22T04:38:47.252Z,0
2017-09-22T04:39:42.272Z,0
2017-09-22T04:40:42.302Z,4
2017-09-22T04:41:36.346Z,4
2017-09-22T04:42:36.388Z,4
2017-09-22T04:43:31.401Z,0
2017-09-22T04:44:31.408Z,4
2017-09-22T04:45:31.458Z,4
2017-09-22T04:46:31.481Z,4
2017-09-22T04:47:25.489Z,8
2017-09-22T04:48:25.580Z,8
2017-09-22T04:49:20.583Z,8
2017-09-22T04:50:15.962Z,12
2017-09-22T04:51:15.649Z,12
2017-09-22T04:52:10.677Z,16
2017-09-22T04:53:10.685Z,20
2017-09-22T04:54:10.710Z,20
2017-09-22T04:55:11.251Z,24
2017-09-22T04:56:04.770Z,32
2017-09-22T04:57:04.792Z,36
2017-09-22T04:57:59.859Z,44
2017-09-22T04:58:54.875Z,48
2017-09-22T04:59:54.895Z,56
2017-09-22T05:00:49.928Z,64
2017-09-22T05:01:44.945Z,80
2017-09-22T05:02:51.430Z,92
2017-09-22T05:03:45.011Z,108
2017-09-22T05:04:45.007Z,124
2017-09-22T05:05:40.178Z,140
2017-09-22T05:06:40.104Z,164
2017-09-22T05:07:40.100Z,188
2017-09-22T05:08:40.173Z,220
2017-09-22T05:09:40.196Z,248
2017-09-22T05:10:40.201Z,284
2017-09-22T05:11:40.273Z,320
2017-09-22T05:12:40.280Z,356
2017-09-22T05:13:40.300Z,396
2017-09-22T05:14:40.308Z,436
2017-09-22T05:15:40.381Z,480
2017-09-22T05:16:40.437Z,528
2017-09-22T05:17:40.409Z,576
2017-09-22T05:18:40.419Z,632
2017-09-22T05:19:40.449Z,688
2017-09-22T05:20:40.507Z,748
2017-09-22T05:21:40.837Z,820
2017-09-22T05:22:40.642Z,900
2017-09-22T05:23:40.603Z,976
2017-09-22T05:24:40.594Z,1064
2017-09-22T05:25:40.656Z,1148
2017-09-22T05:26:40.681Z,1240
2017-09-22T05:27:40.687Z,1324
2017-09-22T05:28:40.847Z,1424
2017-09-22T05:29:40.779Z,1520
2017-09-22T05:30:40.787Z,1620
2017-09-22T05:31:40.801Z,1716
2017-09-22T05:32:40.853Z,1824
2017-09-22T05:33:40.893Z,1940
2017-09-22T05:34:40.898Z,2068
2017-09-22T05:35:40.970Z,2208
2017-09-22T05:36:40.980Z,2348
2017-09-22T05:37:40.988Z,2480
2017-09-22T05:38:41.003Z,2596
2017-09-22T05:39:41.031Z,2716
2017-09-22T05:40:47.314Z,2856
2017-09-22T05:41:42.089Z,2980
2017-09-22T05:42:36.110Z,3084
2017-09-22T05:43:36.189Z,3220
2017-09-22T05:44:31.183Z,3344
2017-09-22T05:45:31.250Z,3468
2017-09-22T05:46:32.706Z,3588
2017-09-22T05:47:32.285Z,3696
2017-09-22T05:48:32.722Z,3800
2017-09-22T05:49:32.366Z,3892
2017-09-22T05:50:32.386Z,3984
2017-09-22T05:51:32.398Z,4092
2017-09-22T05:52:32.438Z,4220
2017-09-22T05:53:32.453Z,4352
2017-09-22T05:54:32.490Z,4488
2017-09-22T05:55:32.498Z,4580
2017-09-22T05:56:38.513Z,4656
2017-09-22T05:57:38.711Z,4748
2017-09-22T05:58:39.589Z,4812
2017-09-22T05:59:40.646Z,4864
2017-09-22T06:00:40.670Z,4916
2017-09-22T06:01:35.697Z,4972
2017-09-22T06:02:36.701Z,5072
2017-09-22T06:03:36.806Z,5192
2017-09-22T06:04:31.887Z,5356
2017-09-22T06:05:26.848Z,5528
2017-09-22T06:06:26.874Z,5628
2017-09-22T06:07:22.095Z,5784
2017-09-22T06:08:16.904Z,6028
2017-09-22T06:09:11.090Z,6268
2017-09-22T06:10:16.982Z,6584
2017-09-22T06:11:11.008Z,6896
2017-09-22T06:12:12.091Z,7220
2017-09-22T06:13:07.089Z,7460
2017-09-22T06:14:07.106Z,7652
2017-09-22T06:15:07.199Z,7804
2017-09-22T06:16:07.179Z,8144
2017-09-22T06:17:13.220Z,8528
2017-09-22T06:18:08.263Z,8756
2017-09-22T06:19:08.316Z,8752
2017-09-22T06:20:08.345Z,8860
2017-09-22T06:21:02.366Z,8928
2017-09-22T06:22:02.379Z,8916
2017-09-22T06:22:57.409Z,9000
2017-09-22T06:23:52.449Z,9168
2017-09-22T06:24:46.470Z,9508
2017-09-22T06:25:46.951Z,9900
2017-09-22T06:26:42.033Z,10020
2017-09-22T06:27:41.590Z,9972
2017-09-22T06:28:41.668Z,10100
2017-09-22T06:29:41.666Z,10144
2017-09-22T06:30:35.688Z,10260
2017-09-22T06:31:35.776Z,10272
2017-09-22T06:32:30.936Z,10200
2017-09-22T06:33:25.785Z,10696
2017-09-22T06:34:19.865Z,10800
2017-09-22T06:35:19.872Z,11256
2017-09-22T06:36:14.892Z,11368
2017-09-22T06:37:09.964Z,11496
2017-09-22T06:38:10.230Z,11396
2017-09-22T06:39:04.993Z,11420
2017-09-22T06:40:00.074Z,11444
2017-09-22T06:40:54.239Z,11608
2017-09-22T06:41:55.318Z,11504
2017-09-22T06:42:50.382Z,11428
2017-09-22T06:43:50.190Z,11476
2017-09-22T06:44:50.585Z,11684
2017-09-22T06:45:50.361Z,11800
2017-09-22T06:46:50.532Z,12016
2017-09-22T06:47:50.444Z,12344
2017-09-22T06:48:50.414Z,12548
2017-09-22T06:49:50.400Z,12768
2017-09-22T06:50:50.458Z,13088
2017-09-22T06:51:50.501Z,13188
2017-09-22T06:52:57.051Z,13092
2017-09-22T06:53:51.653Z,13160
2017-09-22T06:54:52.053Z,13048
2017-09-22T06:55:51.802Z,13264
2017-09-22T06:56:45.684Z,13268
2017-09-22T06:57:45.721Z,12744
2017-09-22T06:58:40.786Z,15296
2017-09-22T06:59:36.032Z,16576
2017-09-22T07:00:30.166Z,13196
2017-09-22T07:01:30.194Z,14484
2017-09-22T07:02:25.182Z,16000
2017-09-22T07:03:25.281Z,16288
2017-09-22T07:04:25.378Z,18880
2017-09-22T07:05:25.468Z,18208
2017-09-22T07:06:19.503Z,16704
2017-09-22T07:07:19.675Z,16224
2017-09-22T07:08:14.195Z,16704
2017-09-22T07:09:09.690Z,17088
2017-09-22T07:10:03.220Z,17344
2017-09-22T07:11:03.322Z,17440
2017-09-22T07:11:58.319Z,17600
2017-09-22T07:12:53.651Z,17088
2017-09-22T07:13:53.401Z,17792
2017-09-22T07:14:48.462Z,19200
2017-09-22T07:15:43.698Z,20384
2017-09-22T07:16:37.509Z,19200
2017-09-22T07:17:38.669Z,20736
2017-09-22T07:18:33.693Z,18976
2017-09-22T07:19:33.656Z,18720
2017-09-22T07:20:33.684Z,21472
2017-09-22T07:21:33.889Z,23296
2017-09-22T07:22:33.800Z,22656
2017-09-22T07:23:33.793Z,23168
2017-09-22T07:24:34.154Z,23136
2017-09-22T07:25:34.149Z,23584
2017-09-22T07:26:34.425Z,24064
2017-09-22T07:27:34.294Z,24128
2017-09-22T07:28:34.353Z,24512
2017-09-22T07:29:34.461Z,24736
2017-09-22T07:30:40.601Z,24416
2017-09-22T07:31:35.117Z,24160
2017-09-22T07:32:29.189Z,24416
2017-09-22T07:33:29.200Z,24800
2017-09-22T07:34:24.295Z,25056
2017-09-22T07:35:19.375Z,25728
2017-09-22T07:36:19.379Z,26560
2017-09-22T07:37:14.471Z,26304
2017-09-22T07:38:09.964Z,27392
2017-09-22T07:39:03.477Z,29408
2017-09-22T07:40:03.564Z,31584
2017-09-22T07:40:58.516Z,32960
2017-09-22T07:41:54.111Z,33344
2017-09-22T07:42:54.073Z,32960
2017-09-22T07:43:49.196Z,32832
2017-09-22T07:44:42.764Z,32960
2017-09-22T07:45:37.035Z,34688
2017-09-22T07:46:26.065Z,36960
2017-09-22T07:47:13.912Z,38816
2017-09-22T07:48:08.176Z,40000
2017-09-22T07:49:03.233Z,38560
2017-09-22T07:49:58.364Z,36832
2017-09-22T07:50:52.458Z,35712
2017-09-22T07:51:46.612Z,34592
2017-09-22T07:52:35.180Z,33280
2017-09-22T07:53:23.720Z,31744
2017-09-22T07:54:12.313Z,30976
2017-09-22T07:55:00.346Z,30880
2017-09-22T07:56:00.913Z,32416
2017-09-22T07:56:54.619Z,34688
2017-09-22T07:57:43.524Z,37120
2017-09-22T07:58:37.514Z,39200
2017-09-22T07:59:25.681Z,39264
2017-09-22T08:00:13.714Z,38496
2017-09-22T08:01:07.735Z,35616
2017-09-22T08:02:01.893Z,34944
2017-09-22T08:02:56.109Z,35168
2017-09-22T08:03:55.819Z,34432
2017-09-22T08:04:45.188Z,32896
2017-09-22T08:05:39.215Z,32480
2017-09-22T08:06:28.294Z,32256
2017-09-22T08:07:16.414Z,32288
2017-09-22T08:08:11.248Z,32448
2017-09-22T08:09:00.178Z,32128
2017-09-22T08:09:54.203Z,31488
2017-09-22T08:10:54.267Z,32576
2017-09-22T08:11:48.851Z,35488
2017-09-22T08:12:37.369Z,39168
2017-09-22T08:13:32.633Z,41664
2017-09-22T08:14:27.497Z,42560
2017-09-22T08:15:23.106Z,42656
2017-09-22T08:16:17.027Z,42272
2017-09-22T08:17:16.998Z,41408
2017-09-22T08:18:05.060Z,41120
2017-09-22T08:18:54.134Z,40480
2017-09-22T08:19:48.180Z,39872
2017-09-22T08:20:43.154Z,39296
2017-09-22T08:21:43.267Z,38336
2017-09-22T08:22:31.360Z,39232
2017-09-22T08:23:31.367Z,39680
2017-09-22T08:24:20.471Z,40512
2017-09-22T08:25:14.443Z,41056
2017-09-22T08:26:09.610Z,41856
2017-09-22T08:27:04.667Z,42528
2017-09-22T08:27:58.715Z,43936
2017-09-22T08:28:46.597Z,43488
2017-09-22T08:29:40.337Z,42944
2017-09-22T08:30:40.465Z,42144
2017-09-22T08:31:35.420Z,40512
2017-09-22T08:32:29.680Z,40256
2017-09-22T08:33:24.524Z,41024
2017-09-22T08:34:19.601Z,40256
2017-09-22T08:35:14.617Z,38816
2017-09-22T08:36:09.910Z,38528
2017-09-22T08:36:58.727Z,37600
2017-09-22T08:37:47.795Z,37120
2017-09-22T08:38:41.873Z,35040
2017-09-22T08:39:36.957Z,34944
2017-09-22T08:40:37.042Z,35072
2017-09-22T08:41:31.092Z,38720
2017-09-22T08:42:25.496Z,43840
2017-09-22T08:43:19.108Z,43712
2017-09-22T08:44:20.211Z,44544
2017-09-22T08:45:20.210Z,40288
2017-09-22T08:46:20.415Z,41344
2017-09-22T08:47:20.856Z,41088
2017-09-22T08:48:15.370Z,40800
2017-09-22T08:49:03.411Z,39360
2017-09-22T08:50:03.487Z,39264
2017-09-22T08:50:51.516Z,38080
2017-09-22T08:51:40.871Z,39872
2017-09-22T08:52:34.612Z,39104
2017-09-22T08:53:28.685Z,42816
2017-09-22T08:54:22.725Z,45056
2017-09-22T08:55:16.982Z,47232
2017-09-22T08:56:10.871Z,45280
2017-09-22T08:56:59.138Z,38848
2017-09-22T08:57:48.181Z,35968
2017-09-22T08:58:47.963Z,31904
2017-09-22T08:59:37.449Z,31200
2017-09-22T09:00:31.632Z,31264
2017-09-22T09:01:26.628Z,31776
2017-09-22T09:02:20.799Z,31904
2017-09-22T09:03:15.234Z,32864
2017-09-22T09:04:09.499Z,38368
2017-09-22T09:05:09.808Z,43552
2017-09-22T09:06:04.429Z,44928
2017-09-22T09:06:59.511Z,44864
2017-09-22T09:07:59.650Z,46592
2017-09-22T09:08:53.954Z,48800
2017-09-22T09:09:43.080Z,49536
2017-09-22T09:10:37.161Z,49408
2017-09-22T09:11:31.258Z,49728
2017-09-22T09:12:26.311Z,50464
2017-09-22T09:13:20.312Z,50080
2017-09-22T09:14:09.445Z,47776
2017-09-22T09:15:04.354Z,46400
2017-09-22T09:15:58.501Z,44864
2017-09-22T09:16:53.553Z,45888
2017-09-22T09:17:47.568Z,45760
2017-09-22T09:18:35.587Z,46400
2017-09-22T09:19:36.659Z,47744
2017-09-22T09:20:30.674Z,50432
2017-09-22T09:21:18.726Z,47264
2017-09-22T09:22:12.843Z,48032
2017-09-22T09:23:06.915Z,47072
2017-09-22T09:24:00.996Z,42112
2017-09-22T09:24:55.520Z,38240
2017-09-22T09:25:49.751Z,39488
2017-09-22T09:26:44.063Z,42944
2017-09-22T09:27:38.195Z,46720
2017-09-22T09:28:31.874Z,51872
2017-09-22T09:29:20.966Z,51552
2017-09-22T09:30:15.138Z,48384
2017-09-22T09:31:03.926Z,48960
2017-09-22T09:31:53.051Z,52800
2017-09-22T09:32:53.079Z,52832
2017-09-22T09:33:42.554Z,51296
2017-09-22T09:34:36.560Z,51072
2017-09-22T09:35:36.607Z,49504
2017-09-22T09:36:30.593Z,45600
2017-09-22T09:37:24.999Z,44000
2017-09-22T09:38:25.746Z,39456
2017-09-22T09:39:14.841Z,41088
2017-09-22T09:40:03.908Z,40640
2017-09-22T09:40:52.959Z,38944
2017-09-22T09:41:42.042Z,38368
2017-09-22T09:42:31.063Z,37280
2017-09-22T09:43:19.895Z,39200
2017-09-22T09:44:20.120Z,42144
2017-09-22T09:45:14.208Z,40480
2017-09-22T09:46:08.397Z,49056
2017-09-22T09:47:09.220Z,46240
2017-09-22T09:48:09.285Z,49056
2017-09-22T09:49:04.253Z,45408
2017-09-22T09:49:58.220Z,41472
2017-09-22T09:50:53.573Z,40992
2017-09-22T09:51:47.528Z,42528
2017-09-22T09:52:47.190Z,41376
2017-09-22T09:53:36.532Z,40032
2017-09-22T09:54:30.752Z,38944
2017-09-22T09:55:30.739Z,38656
2017-09-22T09:56:19.747Z,40384
2017-09-22T09:57:13.909Z,44768
2017-09-22T09:58:08.843Z,48192
2017-09-22T09:59:04.070Z,49856
2017-09-22T09:59:57.889Z,50080
2017-09-22T10:00:52.192Z,49920
2017-09-22T10:01:41.152Z,50048
2017-09-22T10:02:36.204Z,49696
2017-09-22T10:03:31.040Z,50848
2017-09-22T10:04:25.337Z,54464
2017-09-22T10:05:25.057Z,52864
2017-09-22T10:06:19.490Z,52384
2017-09-22T10:07:19.520Z,49440
2017-09-22T10:08:08.542Z,48896
2017-09-22T10:09:02.681Z,48704
2017-09-22T10:09:57.649Z,48896
2017-09-22T10:10:57.698Z,48928
2017-09-22T10:11:51.838Z,49344
2017-09-22T10:12:40.929Z,48800
2017-09-22T10:13:35.827Z,44960
2017-09-22T10:14:29.733Z,45024
2017-09-22T10:15:19.021Z,42144
2017-09-22T10:16:13.032Z,42528
2017-09-22T10:17:02.190Z,45280
2017-09-22T10:17:51.174Z,49376
2017-09-22T10:18:45.193Z,50560
2017-09-22T10:19:39.209Z,52832
2017-09-22T10:20:28.406Z,52448
2017-09-22T10:21:17.464Z,52576
2017-09-22T10:22:06.586Z,52064
2017-09-22T10:23:00.588Z,52288
2017-09-22T10:23:55.554Z,52544
2017-09-22T10:24:50.708Z,54944
2017-09-22T10:25:39.659Z,54880
2017-09-22T10:26:28.732Z,57952
2017-09-22T10:27:17.871Z,58112
2017-09-22T10:28:11.919Z,56576
2017-09-22T10:29:06.910Z,54656
2017-09-22T10:30:01.937Z,52544
2017-09-22T10:30:50.003Z,50240
2017-09-22T10:31:44.170Z,49984
2017-09-22T10:32:38.199Z,50688
2017-09-22T10:33:32.187Z,49088
2017-09-22T10:34:32.272Z,47520
2017-09-22T10:35:21.266Z,48640
2017-09-22T10:36:09.422Z,46944
2017-09-22T10:37:03.485Z,46656
2017-09-22T10:37:57.629Z,46560
2017-09-22T10:38:51.562Z,48992
2017-09-22T10:39:46.641Z,51712
2017-09-22T10:40:40.731Z,53280
2017-09-22T10:41:28.678Z,54880
2017-09-22T10:42:17.752Z,55584
2017-09-22T10:43:12.859Z,54848
2017-09-22T10:44:01.936Z,52032
2017-09-22T10:44:56.992Z,50240
2017-09-22T10:45:46.003Z,50752
2017-09-22T10:46:40.111Z,53056
2017-09-22T10:47:35.158Z,52512
2017-09-22T10:48:35.201Z,52416
2017-09-22T10:49:24.244Z,50528
2017-09-22T10:50:18.333Z,50432
2017-09-22T10:51:06.374Z,51744
2017-09-22T10:51:54.478Z,53024
2017-09-22T10:52:48.454Z,51968
2017-09-22T10:53:37.661Z,53440
2017-09-22T10:54:32.588Z,54240
2017-09-22T10:55:21.661Z,50624
2017-09-22T10:56:15.819Z,49216
2017-09-22T10:57:21.779Z,52512
2017-09-22T10:58:15.900Z,52448
2017-09-22T10:59:09.933Z,54432
2017-09-22T11:00:03.975Z,56800
2017-09-22T11:00:57.985Z,56544
2017-09-22T11:01:52.096Z,55040
2017-09-22T11:02:58.100Z,56576
2017-09-22T11:03:47.195Z,53120
2017-09-22T11:04:36.298Z,48160
2017-09-22T11:05:30.276Z,43744
2017-09-22T11:06:24.386Z,42976
2017-09-22T11:07:18.396Z,43648
2017-09-22T11:08:12.505Z,46560
2017-09-22T11:09:00.527Z,37728
2017-09-22T11:09:55.641Z,43808
2017-09-22T11:10:55.660Z,44864
2017-09-22T11:11:50.725Z,47392
2017-09-22T11:12:50.522Z,46016
2017-09-22T11:13:39.742Z,51104
2017-09-22T11:14:33.720Z,52192
2017-09-22T11:15:23.205Z,45344
2017-09-22T11:16:17.994Z,46112
2017-09-22T11:17:13.017Z,27296
2017-09-22T11:18:02.119Z,38752
2017-09-22T11:19:02.150Z,49792
2017-09-22T11:19:57.196Z,49952
2017-09-22T11:20:45.278Z,50880
2017-09-22T11:21:39.318Z,44480
2017-09-22T11:22:33.384Z,44640
2017-09-22T11:23:27.435Z,29312
2017-09-22T11:24:21.487Z,28352
2017-09-22T11:25:15.557Z,28096
2017-09-22T11:26:09.660Z,28192
2017-09-22T11:27:04.664Z,27968
2017-09-22T11:27:59.702Z,28960
2017-09-22T11:28:54.802Z,29888
2017-09-22T11:29:43.818Z,30368
2017-09-22T11:30:38.889Z,29856
2017-09-22T11:31:26.896Z,30240
2017-09-22T11:32:21.009Z,32000
2017-09-22T11:33:14.925Z,32544
2017-09-22T11:34:09.597Z,32512
2017-09-22T11:35:10.151Z,33280
2017-09-22T11:36:05.045Z,32832
2017-09-22T11:37:00.016Z,33184
2017-09-22T11:37:54.197Z,33760
2017-09-22T11:38:47.989Z,33728
2017-09-22T11:39:48.403Z,33344
2017-09-22T11:40:42.032Z,33344
2017-09-22T11:41:42.438Z,32544
2017-09-22T11:42:37.542Z,32448
2017-09-22T11:43:31.613Z,31808
2017-09-22T11:44:31.664Z,31168
2017-09-22T11:45:26.713Z,30400
2017-09-22T11:46:21.743Z,30080
2017-09-22T11:47:09.855Z,29408
2017-09-22T11:48:09.856Z,29152
2017-09-22T11:49:03.918Z,28704
2017-09-22T11:49:58.924Z,28480
2017-09-22T11:50:48.008Z,28032
2017-09-22T11:51:37.053Z,27872
2017-09-22T11:52:31.081Z,27648
2017-09-22T11:53:31.162Z,27424
2017-09-22T11:54:25.196Z,27296
2017-09-22T11:55:25.224Z,26944
2017-09-22T11:56:14.321Z,27104
2017-09-22T11:57:08.368Z,26784
2017-09-22T11:58:02.445Z,26816
2017-09-22T11:59:02.544Z,27008
2017-09-22T11:59:56.508Z,26624
2017-09-22T12:00:50.532Z,26624
2017-09-22T12:01:38.589Z,26592
2017-09-22T12:02:32.705Z,26400
2017-09-22T12:03:26.733Z,26400
2017-09-22T12:04:15.749Z,26496
2017-09-22T12:05:10.730Z,26720
2017-09-22T12:06:04.950Z,26816
2017-09-22T12:06:53.991Z,26752
2017-09-22T12:07:42.974Z,27136
2017-09-22T12:08:37.100Z,27424
2017-09-22T12:09:37.043Z,27712
2017-09-22T12:10:31.135Z,27872
2017-09-22T12:11:31.077Z,27936
2017-09-22T12:12:19.183Z,28224
2017-09-22T12:13:19.837Z,28448
2017-09-22T12:14:13.886Z,28640
2017-09-22T12:15:03.003Z,29024
2017-09-22T12:16:08.974Z,29184
2017-09-22T12:17:04.004Z,29696
2017-09-22T12:17:52.172Z,29664
2017-09-22T12:18:46.279Z,30432
2017-09-22T12:19:40.682Z,30304
2017-09-22T12:20:35.732Z,30624
2017-09-22T12:21:35.768Z,30880
2017-09-22T12:22:24.683Z,31328
2017-09-22T12:23:18.885Z,31840
2017-09-22T12:24:18.886Z,32192
2017-09-22T12:25:13.961Z,32352
2017-09-22T12:26:08.047Z,32384
2017-09-22T12:27:03.073Z,32768
2017-09-22T12:27:57.060Z,32512
2017-09-22T12:28:52.154Z,32128
2017-09-22T12:29:52.073Z,32192
2017-09-22T12:30:46.284Z,31808
2017-09-22T12:31:35.380Z,31616
2017-09-22T12:32:29.577Z,31552
2017-09-22T12:33:18.457Z,31072
2017-09-22T12:34:07.406Z,30496
2017-09-22T12:34:55.510Z,30176
2017-09-22T12:35:49.610Z,29664
2017-09-22T12:36:37.673Z,29440
2017-09-22T12:37:37.635Z,28992
2017-09-22T12:38:31.469Z,28608
2017-09-22T12:39:25.814Z,28256
2017-09-22T12:40:25.814Z,28032
2017-09-22T12:41:19.916Z,27840
2017-09-22T12:42:13.894Z,27584
2017-09-22T12:43:07.813Z,27392
2017-09-22T12:44:03.072Z,27424
2017-09-22T12:44:57.943Z,27552